sensor_id;sensor_type;location;lat;lon;timestamp;temperature;humidity
26182;DHT22;13927;51.534;11.866;2023-02-26T00:01:14;0.60;99.90
26182;DHT22;13927;51.534;11.866;2023-02-26T00:03:41;0.50;99.90
26182;DHT22;13927;51.534;11.866;2023-02-26T00:06:07;0.50;99.90
26182;DHT22;13927;51.534;11.866;2023-02-26T00:08:34;0.40;99.90
26182;DHT22;13927;51.534;11.866;2023-02-26T00:11:00;0.40;99.90
26182;DHT22;13927;51.534;11.866;2023-02-26T00:13:27;0.40;99.90
26182;DHT22;13927;51.534;11.866;2023-02-26T00:15:59;0.40;99.90
26182;DHT22;13927;51.534;11.866;2023-02-26T00:18:25;0.40;99.90
26182;DHT22;13927;51.534;11.866;2023-02-26T00:20:52;0.40;99.90
26182;DHT22;13927;51.534;11.866;2023-02-26T00:23:18;0.50;99.90
26182;DHT22;13927;51.534;11.866;2023-02-26T00:25:44;0.50;99.90
26182;DHT22;13927;51.534;11.866;2023-02-26T00:28:11;0.50;99.90
26182;DHT22;13927;51.534;11.866;2023-02-26T00:30:37;0.50;99.90
26182;DHT22;13927;51.534;11.866;2023-02-26T00:33:04;0.50;99.90
26182;DHT22;13927;51.534;11.866;2023-02-26T00:35:30;0.40;99.90
26182;DHT22;13927;51.534;11.866;2023-02-26T00:38:02;0.40;99.90
26182;DHT22;13927;51.534;11.866;2023-02-26T00:43:23;0.30;99.90
26182;DHT22;13927;51.534;11.866;2023-02-26T00:46:02;0.40;99.90
26182;DHT22;13927;51.534;11.866;2023-02-26T00:51:58;0.30;99.90
26182;DHT22;13927;51.534;11.866;2023-02-26T00:54:29;0.20;99.90
26182;DHT22;13927;51.534;11.866;2023-02-26T00:56:57;0.30;99.90
26182;DHT22;13927;51.534;11.866;2023-02-26T00:59:24;0.20;99.90
26182;DHT22;13927;51.534;11.866;2023-02-26T01:01:50;0.10;99.90
26182;DHT22;13927;51.534;11.866;2023-02-26T01:04:19;0.10;99.90
26182;DHT22;13927;51.534;11.866;2023-02-26T01:06:54;0.10;99.90
26182;DHT22;13927;51.534;11.866;2023-02-26T01:09:26;0.10;99.90
26182;DHT22;13927;51.534;11.866;2023-02-26T01:11:59;0.10;99.90
26182;DHT22;13927;51.534;11.866;2023-02-26T01:14:29;0.10;99.90
26182;DHT22;13927;51.534;11.866;2023-02-26T01:20:14;0.10;99.90
26182;DHT22;13927;51.534;11.866;2023-02-26T01:25:42;0.00;99.90
26182;DHT22;13927;51.534;11.866;2023-02-26T01:28:13;-0.10;99.90
26182;DHT22;13927;51.534;11.866;2023-02-26T01:30:39;0.00;99.90
26182;DHT22;13927;51.534;11.866;2023-02-26T01:33:21;-0.10;99.90
26182;DHT22;13927;51.534;11.866;2023-02-26T01:36:11;0.00;99.90
26182;DHT22;13927;51.534;11.866;2023-02-26T01:39:07;-0.10;99.90
26182;DHT22;13927;51.534;11.866;2023-02-26T01:41:53;-0.10;99.90
26182;DHT22;13927;51.534;11.866;2023-02-26T01:44:28;-0.20;99.90
26182;DHT22;13927;51.534;11.866;2023-02-26T01:47:20;-0.30;99.90
26182;DHT22;13927;51.534;11.866;2023-02-26T01:49:55;-0.20;99.90
26182;DHT22;13927;51.534;11.866;2023-02-26T01:55:21;-0.20;99.90
26182;DHT22;13927;51.534;11.866;2023-02-26T01:57:51;-0.30;99.90
26182;DHT22;13927;51.534;11.866;2023-02-26T02:00:18;-0.30;99.90
26182;DHT22;13927;51.534;11.866;2023-02-26T02:02:44;-0.20;99.90
26182;DHT22;13927;51.534;11.866;2023-02-26T02:05:18;-0.30;99.90
26182;DHT22;13927;51.534;11.866;2023-02-26T02:07:49;-0.30;99.90
26182;DHT22;13927;51.534;11.866;2023-02-26T02:10:15;-0.30;99.90
26182;DHT22;13927;51.534;11.866;2023-02-26T02:16:05;-0.30;99.90
26182;DHT22;13927;51.534;11.866;2023-02-26T02:18:58;-0.30;99.90
26182;DHT22;13927;51.534;11.866;2023-02-26T02:22:14;-0.30;99.90
26182;DHT22;13927;51.534;11.866;2023-02-26T02:33:18;-0.40;99.90
26182;DHT22;13927;51.534;11.866;2023-02-26T02:35:55;-0.30;99.90
26182;DHT22;13927;51.534;11.866;2023-02-26T02:38:32;-0.30;99.90
26182;DHT22;13927;51.534;11.866;2023-02-26T02:41:06;-0.30;99.90
26182;DHT22;13927;51.534;11.866;2023-02-26T02:43:38;-0.30;99.90
26182;DHT22;13927;51.534;11.866;2023-02-26T02:46:15;-0.30;99.90
26182;DHT22;13927;51.534;11.866;2023-02-26T02:48:59;-0.30;99.90
26182;DHT22;13927;51.534;11.866;2023-02-26T02:51:35;-0.40;99.90
26182;DHT22;13927;51.534;11.866;2023-02-26T02:54:09;-0.40;99.90
26182;DHT22;13927;51.534;11.866;2023-02-26T02:56:51;-0.40;99.90
26182;DHT22;13927;51.534;11.866;2023-02-26T02:59:33;-0.40;99.90
26182;DHT22;13927;51.534;11.866;2023-02-26T03:02:22;-0.40;99.90
26182;DHT22;13927;51.534;11.866;2023-02-26T03:04:51;-0.40;99.90
26182;DHT22;13927;51.534;11.866;2023-02-26T03:07:17;-0.40;99.90
26182;DHT22;13927;51.534;11.866;2023-02-26T03:09:43;-0.40;99.90
26182;DHT22;13927;51.534;11.866;2023-02-26T03:12:09;-0.40;99.90
26182;DHT22;13927;51.534;11.866;2023-02-26T03:14:35;-0.40;99.90
26182;DHT22;13927;51.534;11.866;2023-02-26T03:17:27;-0.30;99.90
26182;DHT22;13927;51.534;11.866;2023-02-26T03:20:16;-0.30;99.90
26182;DHT22;13927;51.534;11.866;2023-02-26T03:23:04;-0.30;99.90
26182;DHT22;13927;51.534;11.866;2023-02-26T03:25:48;-0.30;99.90
26182;DHT22;13927;51.534;11.866;2023-02-26T03:28:22;-0.40;99.90
26182;DHT22;13927;51.534;11.866;2023-02-26T03:31:12;-0.40;99.90
26182;DHT22;13927;51.534;11.866;2023-02-26T03:33:56;-0.40;99.90
26182;DHT22;13927;51.534;11.866;2023-02-26T03:39:06;-0.30;99.90
26182;DHT22;13927;51.534;11.866;2023-02-26T03:41:43;-0.40;99.90
26182;DHT22;13927;51.534;11.866;2023-02-26T03:44:16;-0.30;99.90
26182;DHT22;13927;51.534;11.866;2023-02-26T03:46:51;-0.30;99.90
26182;DHT22;13927;51.534;11.866;2023-02-26T03:49:26;-0.40;99.90
26182;DHT22;13927;51.534;11.866;2023-02-26T03:51:57;-0.30;99.90
26182;DHT22;13927;51.534;11.866;2023-02-26T03:54:42;-0.30;99.90
26182;DHT22;13927;51.534;11.866;2023-02-26T03:57:12;-0.40;99.90
26182;DHT22;13927;51.534;11.866;2023-02-26T03:59:38;-0.40;99.90
26182;DHT22;13927;51.534;11.866;2023-02-26T04:02:12;-0.40;99.90
26182;DHT22;13927;51.534;11.866;2023-02-26T04:04:50;-0.40;99.90
26182;DHT22;13927;51.534;11.866;2023-02-26T04:07:19;-0.40;99.90
26182;DHT22;13927;51.534;11.866;2023-02-26T04:09:47;-0.30;99.90
26182;DHT22;13927;51.534;11.866;2023-02-26T04:12:14;-0.30;99.90
26182;DHT22;13927;51.534;11.866;2023-02-26T04:14:40;-0.30;99.90
26182;DHT22;13927;51.534;11.866;2023-02-26T04:17:05;-0.40;99.90
26182;DHT22;13927;51.534;11.866;2023-02-26T04:19:31;-0.40;99.90
26182;DHT22;13927;51.534;11.866;2023-02-26T04:21:57;-0.30;99.90
26182;DHT22;13927;51.534;11.866;2023-02-26T04:24:22;-0.40;99.90
26182;DHT22;13927;51.534;11.866;2023-02-26T04:26:48;-0.40;99.90
26182;DHT22;13927;51.534;11.866;2023-02-26T04:29:14;-0.40;99.90
26182;DHT22;13927;51.534;11.866;2023-02-26T04:31:40;-0.40;99.90
26182;DHT22;13927;51.534;11.866;2023-02-26T04:34:05;-0.40;99.90
26182;DHT22;13927;51.534;11.866;2023-02-26T04:36:31;-0.50;99.90
26182;DHT22;13927;51.534;11.866;2023-02-26T04:38:57;-0.50;99.90
26182;DHT22;13927;51.534;11.866;2023-02-26T04:41:23;-0.50;99.90
26182;DHT22;13927;51.534;11.866;2023-02-26T04:43:49;-0.50;99.90
26182;DHT22;13927;51.534;11.866;2023-02-26T04:46:15;-0.50;99.90
26182;DHT22;13927;51.534;11.866;2023-02-26T04:48:41;-0.50;99.90
26182;DHT22;13927;51.534;11.866;2023-02-26T04:51:06;-0.50;99.90
26182;DHT22;13927;51.534;11.866;2023-02-26T04:53:32;-0.50;99.90
26182;DHT22;13927;51.534;11.866;2023-02-26T04:55:58;-0.50;99.90
26182;DHT22;13927;51.534;11.866;2023-02-26T04:58:23;-0.60;99.90
26182;DHT22;13927;51.534;11.866;2023-02-26T05:00:51;-0.60;99.90
26182;DHT22;13927;51.534;11.866;2023-02-26T05:03:19;-0.60;99.90
26182;DHT22;13927;51.534;11.866;2023-02-26T05:05:45;-0.60;99.90
26182;DHT22;13927;51.534;11.866;2023-02-26T05:08:10;-0.50;99.90
26182;DHT22;13927;51.534;11.866;2023-02-26T05:10:36;-0.50;99.90
26182;DHT22;13927;51.534;11.866;2023-02-26T05:13:02;-0.50;99.90
26182;DHT22;13927;51.534;11.866;2023-02-26T05:15:28;-0.50;99.90
26182;DHT22;13927;51.534;11.866;2023-02-26T05:17:54;-0.50;99.90
26182;DHT22;13927;51.534;11.866;2023-02-26T05:20:19;-0.50;99.90
26182;DHT22;13927;51.534;11.866;2023-02-26T05:22:45;-0.50;99.90
26182;DHT22;13927;51.534;11.866;2023-02-26T05:25:11;-0.40;99.90
26182;DHT22;13927;51.534;11.866;2023-02-26T05:27:38;-0.40;99.90
26182;DHT22;13927;51.534;11.866;2023-02-26T05:30:05;-0.40;99.90
26182;DHT22;13927;51.534;11.866;2023-02-26T05:32:32;-0.40;99.90
26182;DHT22;13927;51.534;11.866;2023-02-26T05:34:59;-0.50;99.90
26182;DHT22;13927;51.534;11.866;2023-02-26T05:37:24;-0.50;99.90
26182;DHT22;13927;51.534;11.866;2023-02-26T05:39:50;-0.50;99.90
26182;DHT22;13927;51.534;11.866;2023-02-26T05:42:16;-0.40;99.90
26182;DHT22;13927;51.534;11.866;2023-02-26T05:44:42;-0.40;99.90
26182;DHT22;13927;51.534;11.866;2023-02-26T05:47:07;-0.40;99.90
26182;DHT22;13927;51.534;11.866;2023-02-26T05:49:33;-0.40;99.90
26182;DHT22;13927;51.534;11.866;2023-02-26T05:51:59;-0.40;99.90
26182;DHT22;13927;51.534;11.866;2023-02-26T05:54:25;-0.40;99.90
26182;DHT22;13927;51.534;11.866;2023-02-26T05:56:50;-0.40;99.90
26182;DHT22;13927;51.534;11.866;2023-02-26T05:59:16;-0.30;99.90
26182;DHT22;13927;51.534;11.866;2023-02-26T06:01:42;-0.30;99.90
26182;DHT22;13927;51.534;11.866;2023-02-26T06:04:08;-0.30;99.90
26182;DHT22;13927;51.534;11.866;2023-02-26T06:06:34;-0.30;99.90
26182;DHT22;13927;51.534;11.866;2023-02-26T06:09:00;-0.30;99.90
26182;DHT22;13927;51.534;11.866;2023-02-26T06:11:27;-0.20;99.90
26182;DHT22;13927;51.534;11.866;2023-02-26T06:13:53;-0.20;99.90
26182;DHT22;13927;51.534;11.866;2023-02-26T06:16:20;-0.20;99.90
26182;DHT22;13927;51.534;11.866;2023-02-26T06:18:46;-0.20;99.90
26182;DHT22;13927;51.534;11.866;2023-02-26T06:21:12;-0.20;99.90
26182;DHT22;13927;51.534;11.866;2023-02-26T06:23:38;-0.20;99.90
26182;DHT22;13927;51.534;11.866;2023-02-26T06:26:04;-0.20;99.90
26182;DHT22;13927;51.534;11.866;2023-02-26T06:28:30;-0.20;99.90
26182;DHT22;13927;51.534;11.866;2023-02-26T06:30:56;-0.20;99.90
26182;DHT22;13927;51.534;11.866;2023-02-26T06:33:22;-0.20;99.90
26182;DHT22;13927;51.534;11.866;2023-02-26T06:35:48;-0.20;99.90
26182;DHT22;13927;51.534;11.866;2023-02-26T06:38:14;-0.20;99.90
26182;DHT22;13927;51.534;11.866;2023-02-26T06:40:40;-0.20;99.90
26182;DHT22;13927;51.534;11.866;2023-02-26T06:43:06;-0.20;99.90
26182;DHT22;13927;51.534;11.866;2023-02-26T06:45:33;-0.20;99.90
26182;DHT22;13927;51.534;11.866;2023-02-26T06:47:58;-0.20;99.90
26182;DHT22;13927;51.534;11.866;2023-02-26T06:50:24;-0.20;99.90
26182;DHT22;13927;51.534;11.866;2023-02-26T06:52:50;-0.20;99.90
26182;DHT22;13927;51.534;11.866;2023-02-26T06:55:16;-0.20;99.90
26182;DHT22;13927;51.534;11.866;2023-02-26T06:57:41;-0.10;99.90
26182;DHT22;13927;51.534;11.866;2023-02-26T07:00:08;-0.10;99.90
26182;DHT22;13927;51.534;11.866;2023-02-26T07:02:34;0.00;99.90
26182;DHT22;13927;51.534;11.866;2023-02-26T07:05:00;0.00;99.90
26182;DHT22;13927;51.534;11.866;2023-02-26T07:07:26;0.00;99.90
26182;DHT22;13927;51.534;11.866;2023-02-26T07:09:52;0.00;99.90
26182;DHT22;13927;51.534;11.866;2023-02-26T07:12:18;0.10;99.90
26182;DHT22;13927;51.534;11.866;2023-02-26T07:14:43;0.10;99.90
26182;DHT22;13927;51.534;11.866;2023-02-26T07:17:10;0.10;99.90
26182;DHT22;13927;51.534;11.866;2023-02-26T07:19:48;0.20;99.90
26182;DHT22;13927;51.534;11.866;2023-02-26T07:22:15;0.30;99.90
26182;DHT22;13927;51.534;11.866;2023-02-26T07:24:42;0.30;99.90
26182;DHT22;13927;51.534;11.866;2023-02-26T07:27:09;0.40;99.90
26182;DHT22;13927;51.534;11.866;2023-02-26T07:29:35;0.40;99.90
26182;DHT22;13927;51.534;11.866;2023-02-26T07:32:02;0.40;99.90
26182;DHT22;13927;51.534;11.866;2023-02-26T07:34:27;0.50;99.90
26182;DHT22;13927;51.534;11.866;2023-02-26T07:36:53;0.50;99.90
26182;DHT22;13927;51.534;11.866;2023-02-26T07:39:19;0.50;99.90
26182;DHT22;13927;51.534;11.866;2023-02-26T07:41:45;0.50;99.90
26182;DHT22;13927;51.534;11.866;2023-02-26T07:44:11;0.50;99.90
26182;DHT22;13927;51.534;11.866;2023-02-26T07:46:37;0.60;99.90
26182;DHT22;13927;51.534;11.866;2023-02-26T07:49:03;0.60;99.90
26182;DHT22;13927;51.534;11.866;2023-02-26T07:51:29;0.60;99.90
26182;DHT22;13927;51.534;11.866;2023-02-26T07:53:54;0.60;99.90
26182;DHT22;13927;51.534;11.866;2023-02-26T07:56:21;0.70;99.90
26182;DHT22;13927;51.534;11.866;2023-02-26T07:58:47;0.70;99.90
26182;DHT22;13927;51.534;11.866;2023-02-26T08:01:13;0.70;99.90
26182;DHT22;13927;51.534;11.866;2023-02-26T08:03:39;0.70;99.90
26182;DHT22;13927;51.534;11.866;2023-02-26T08:06:05;0.80;99.90
26182;DHT22;13927;51.534;11.866;2023-02-26T08:08:31;0.80;99.90
26182;DHT22;13927;51.534;11.866;2023-02-26T08:10:58;0.90;99.90
26182;DHT22;13927;51.534;11.866;2023-02-26T08:13:24;0.90;99.90
26182;DHT22;13927;51.534;11.866;2023-02-26T08:15:50;1.00;99.90
26182;DHT22;13927;51.534;11.866;2023-02-26T08:18:16;1.10;99.90
26182;DHT22;13927;51.534;11.866;2023-02-26T08:20:42;1.20;99.90
26182;DHT22;13927;51.534;11.866;2023-02-26T08:23:08;1.30;99.90
26182;DHT22;13927;51.534;11.866;2023-02-26T08:25:33;1.20;99.90
26182;DHT22;13927;51.534;11.866;2023-02-26T08:27:59;1.20;99.90
26182;DHT22;13927;51.534;11.866;2023-02-26T08:30:26;1.30;99.90
26182;DHT22;13927;51.534;11.866;2023-02-26T08:32:52;1.30;99.90
26182;DHT22;13927;51.534;11.866;2023-02-26T08:35:18;1.40;99.90
26182;DHT22;13927;51.534;11.866;2023-02-26T08:37:43;1.50;99.90
26182;DHT22;13927;51.534;11.866;2023-02-26T08:40:10;1.40;99.90
26182;DHT22;13927;51.534;11.866;2023-02-26T08:42:36;1.50;99.90
26182;DHT22;13927;51.534;11.866;2023-02-26T08:45:02;1.50;99.90
26182;DHT22;13927;51.534;11.866;2023-02-26T08:47:28;1.60;99.90
26182;DHT22;13927;51.534;11.866;2023-02-26T08:49:53;1.60;99.90
26182;DHT22;13927;51.534;11.866;2023-02-26T08:52:19;1.70;99.90
26182;DHT22;13927;51.534;11.866;2023-02-26T08:54:45;1.60;99.90
26182;DHT22;13927;51.534;11.866;2023-02-26T08:57:11;1.80;99.90
26182;DHT22;13927;51.534;11.866;2023-02-26T08:59:37;1.80;99.90
26182;DHT22;13927;51.534;11.866;2023-02-26T09:02:03;1.80;99.90
26182;DHT22;13927;51.534;11.866;2023-02-26T09:04:29;1.90;99.90
26182;DHT22;13927;51.534;11.866;2023-02-26T09:06:54;1.90;99.90
26182;DHT22;13927;51.534;11.866;2023-02-26T09:09:20;2.00;99.90
26182;DHT22;13927;51.534;11.866;2023-02-26T09:11:46;2.00;99.90
26182;DHT22;13927;51.534;11.866;2023-02-26T09:14:12;2.10;99.90
26182;DHT22;13927;51.534;11.866;2023-02-26T09:16:38;2.20;99.90
26182;DHT22;13927;51.534;11.866;2023-02-26T09:19:05;2.30;99.90
26182;DHT22;13927;51.534;11.866;2023-02-26T09:21:31;2.20;99.90
26182;DHT22;13927;51.534;11.866;2023-02-26T09:23:57;2.30;99.90
26182;DHT22;13927;51.534;11.866;2023-02-26T09:26:23;2.30;99.90
26182;DHT22;13927;51.534;11.866;2023-02-26T09:28:49;2.30;99.90
26182;DHT22;13927;51.534;11.866;2023-02-26T09:31:15;2.30;99.90
26182;DHT22;13927;51.534;11.866;2023-02-26T09:33:40;2.30;99.90
26182;DHT22;13927;51.534;11.866;2023-02-26T09:36:06;2.30;99.90
26182;DHT22;13927;51.534;11.866;2023-02-26T09:38:33;2.40;99.90
26182;DHT22;13927;51.534;11.866;2023-02-26T09:41:09;2.40;99.90
26182;DHT22;13927;51.534;11.866;2023-02-26T09:44:11;2.50;99.90
26182;DHT22;13927;51.534;11.866;2023-02-26T09:52:26;2.60;99.90
26182;DHT22;13927;51.534;11.866;2023-02-26T09:55:03;2.50;99.90
26182;DHT22;13927;51.534;11.866;2023-02-26T09:57:36;2.50;99.90
26182;DHT22;13927;51.534;11.866;2023-02-26T10:03:08;2.50;99.90
26182;DHT22;13927;51.534;11.866;2023-02-26T10:11:59;2.80;99.90
26182;DHT22;13927;51.534;11.866;2023-02-26T10:17:04;3.10;99.90
26182;DHT22;13927;51.534;11.866;2023-02-26T10:19:37;3.30;99.90
26182;DHT22;13927;51.534;11.866;2023-02-26T10:22:15;3.30;99.90
26182;DHT22;13927;51.534;11.866;2023-02-26T10:24:49;3.40;99.90
26182;DHT22;13927;51.534;11.866;2023-02-26T10:27:44;3.40;99.90
26182;DHT22;13927;51.534;11.866;2023-02-26T10:30:36;3.60;99.90
26182;DHT22;13927;51.534;11.866;2023-02-26T10:36:03;4.00;99.90
26182;DHT22;13927;51.534;11.866;2023-02-26T10:38:36;4.00;99.90
26182;DHT22;13927;51.534;11.866;2023-02-26T10:41:15;4.00;99.90
26182;DHT22;13927;51.534;11.866;2023-02-26T10:43:53;3.90;99.90
26182;DHT22;13927;51.534;11.866;2023-02-26T10:46:34;3.90;99.90
26182;DHT22;13927;51.534;11.866;2023-02-26T10:52:14;3.50;99.90
26182;DHT22;13927;51.534;11.866;2023-02-26T10:55:02;3.40;99.90
26182;DHT22;13927;51.534;11.866;2023-02-26T10:57:34;3.40;99.90
26182;DHT22;13927;51.534;11.866;2023-02-26T11:00:06;3.30;99.90
26182;DHT22;13927;51.534;11.866;2023-02-26T11:02:39;3.30;99.90
26182;DHT22;13927;51.534;11.866;2023-02-26T11:05:16;3.40;99.90
26182;DHT22;13927;51.534;11.866;2023-02-26T11:07:47;3.40;99.90
26182;DHT22;13927;51.534;11.866;2023-02-26T11:10:19;3.50;99.90
26182;DHT22;13927;51.534;11.866;2023-02-26T11:12:47;3.80;99.90
26182;DHT22;13927;51.534;11.866;2023-02-26T11:15:17;4.00;99.90
26182;DHT22;13927;51.534;11.866;2023-02-26T11:17:47;4.20;99.90
26182;DHT22;13927;51.534;11.866;2023-02-26T11:20:38;4.30;99.90
26182;DHT22;13927;51.534;11.866;2023-02-26T11:23:12;4.00;99.90
26182;DHT22;13927;51.534;11.866;2023-02-26T11:25:39;4.10;99.90
26182;DHT22;13927;51.534;11.866;2023-02-26T11:28:30;4.50;99.90
26182;DHT22;13927;51.534;11.866;2023-02-26T11:31:05;4.60;99.90
26182;DHT22;13927;51.534;11.866;2023-02-26T11:33:42;4.90;99.90
26182;DHT22;13927;51.534;11.866;2023-02-26T11:36:16;5.10;99.90
26182;DHT22;13927;51.534;11.866;2023-02-26T11:38:56;5.20;99.90
26182;DHT22;13927;51.534;11.866;2023-02-26T11:41:27;5.10;99.90
26182;DHT22;13927;51.534;11.866;2023-02-26T11:44:02;5.10;99.90
26182;DHT22;13927;51.534;11.866;2023-02-26T11:46:37;4.90;99.90
26182;DHT22;13927;51.534;11.866;2023-02-26T11:49:11;4.70;99.90
26182;DHT22;13927;51.534;11.866;2023-02-26T11:51:42;4.60;99.90
26182;DHT22;13927;51.534;11.866;2023-02-26T11:54:26;4.20;99.90
26182;DHT22;13927;51.534;11.866;2023-02-26T11:57:01;3.90;99.90
26182;DHT22;13927;51.534;11.866;2023-02-26T11:59:31;4.30;99.90
26182;DHT22;13927;51.534;11.866;2023-02-26T12:02:02;4.70;99.90
26182;DHT22;13927;51.534;11.866;2023-02-26T12:04:39;4.90;99.90
26182;DHT22;13927;51.534;11.866;2023-02-26T12:07:11;4.80;99.90
26182;DHT22;13927;51.534;11.866;2023-02-26T12:09:41;4.60;99.90
26182;DHT22;13927;51.534;11.866;2023-02-26T12:12:10;4.50;99.90
26182;DHT22;13927;51.534;11.866;2023-02-26T12:29:43;4.30;99.90
26182;DHT22;13927;51.534;11.866;2023-02-26T12:32:48;4.20;99.90
26182;DHT22;13927;51.534;11.866;2023-02-26T12:35:56;4.10;99.90
26182;DHT22;13927;51.534;11.866;2023-02-26T12:38:54;4.50;99.90
26182;DHT22;13927;51.534;11.866;2023-02-26T12:41:37;5.10;99.90
26182;DHT22;13927;51.534;11.866;2023-02-26T12:44:40;5.60;99.90
26182;DHT22;13927;51.534;11.866;2023-02-26T12:47:19;5.40;99.90
26182;DHT22;13927;51.534;11.866;2023-02-26T13:04:58;3.90;99.90
26182;DHT22;13927;51.534;11.866;2023-02-26T13:13:37;3.70;99.90
26182;DHT22;13927;51.534;11.866;2023-02-26T13:22:24;3.60;99.90
26182;DHT22;13927;51.534;11.866;2023-02-26T13:25:04;3.60;99.90
26182;DHT22;13927;51.534;11.866;2023-02-26T13:27:46;3.70;99.90
26182;DHT22;13927;51.534;11.866;2023-02-26T13:30:33;4.10;99.90
26182;DHT22;13927;51.534;11.866;2023-02-26T13:33:01;4.60;99.90
26182;DHT22;13927;51.534;11.866;2023-02-26T13:35:36;4.50;99.90
26182;DHT22;13927;51.534;11.866;2023-02-26T13:46:38;3.90;99.90
26182;DHT22;13927;51.534;11.866;2023-02-26T13:52:29;4.00;99.90
26182;DHT22;13927;51.534;11.866;2023-02-26T13:54:56;4.00;99.90
26182;DHT22;13927;51.534;11.866;2023-02-26T13:57:47;4.00;99.90
26182;DHT22;13927;51.534;11.866;2023-02-26T14:00:34;4.10;99.90
26182;DHT22;13927;51.534;11.866;2023-02-26T14:08:21;4.10;99.90
26182;DHT22;13927;51.534;11.866;2023-02-26T14:11:05;4.00;99.90
26182;DHT22;13927;51.534;11.866;2023-02-26T14:16:42;4.00;99.90
26182;DHT22;13927;51.534;11.866;2023-02-26T14:21:53;4.10;99.90
26182;DHT22;13927;51.534;11.866;2023-02-26T14:24:32;4.70;99.90
26182;DHT22;13927;51.534;11.866;2023-02-26T14:30:16;5.40;99.90
26182;DHT22;13927;51.534;11.866;2023-02-26T14:35:32;4.60;99.90
26182;DHT22;13927;51.534;11.866;2023-02-26T14:38:17;4.20;99.90
26182;DHT22;13927;51.534;11.866;2023-02-26T14:41:08;4.10;99.90
26182;DHT22;13927;51.534;11.866;2023-02-26T14:43:50;3.90;99.90
26182;DHT22;13927;51.534;11.866;2023-02-26T14:46:23;3.80;99.90
26182;DHT22;13927;51.534;11.866;2023-02-26T14:48:49;3.70;99.90
26182;DHT22;13927;51.534;11.866;2023-02-26T14:57:39;3.60;99.90
26182;DHT22;13927;51.534;11.866;2023-02-26T15:09:05;3.80;99.90
26182;DHT22;13927;51.534;11.866;2023-02-26T15:23:38;3.80;99.90
26182;DHT22;13927;51.534;11.866;2023-02-26T15:26:07;3.90;99.90
26182;DHT22;13927;51.534;11.866;2023-02-26T15:28:40;4.00;99.90
26182;DHT22;13927;51.534;11.866;2023-02-26T15:31:08;4.00;99.90
26182;DHT22;13927;51.534;11.866;2023-02-26T15:33:35;4.00;99.90
26182;DHT22;13927;51.534;11.866;2023-02-26T15:36:12;3.80;99.90
26182;DHT22;13927;51.534;11.866;2023-02-26T15:38:48;3.70;99.90
26182;DHT22;13927;51.534;11.866;2023-02-26T15:41:16;3.70;99.90
26182;DHT22;13927;51.534;11.866;2023-02-26T15:43:48;3.70;99.90
26182;DHT22;13927;51.534;11.866;2023-02-26T15:46:18;3.80;99.90
26182;DHT22;13927;51.534;11.866;2023-02-26T15:48:45;4.00;99.90
26182;DHT22;13927;51.534;11.866;2023-02-26T15:51:13;4.00;99.90
26182;DHT22;13927;51.534;11.866;2023-02-26T15:53:47;3.90;99.90
26182;DHT22;13927;51.534;11.866;2023-02-26T15:56:20;3.80;99.90
26182;DHT22;13927;51.534;11.866;2023-02-26T15:58:52;3.70;99.90
26182;DHT22;13927;51.534;11.866;2023-02-26T16:01:28;3.70;99.90
26182;DHT22;13927;51.534;11.866;2023-02-26T16:04:00;3.70;99.90
26182;DHT22;13927;51.534;11.866;2023-02-26T16:06:41;3.60;99.90
26182;DHT22;13927;51.534;11.866;2023-02-26T16:09:20;3.60;99.90
26182;DHT22;13927;51.534;11.866;2023-02-26T16:11:52;3.60;99.90
26182;DHT22;13927;51.534;11.866;2023-02-26T16:14:25;3.50;99.90
26182;DHT22;13927;51.534;11.866;2023-02-26T16:16:55;3.50;99.90
26182;DHT22;13927;51.534;11.866;2023-02-26T16:19:33;3.40;99.90
26182;DHT22;13927;51.534;11.866;2023-02-26T16:22:06;3.40;99.90
26182;DHT22;13927;51.534;11.866;2023-02-26T16:24:37;3.30;99.90
26182;DHT22;13927;51.534;11.866;2023-02-26T16:27:05;3.10;99.90
26182;DHT22;13927;51.534;11.866;2023-02-26T16:29:34;3.00;99.90
26182;DHT22;13927;51.534;11.866;2023-02-26T16:32:02;3.00;99.90
26182;DHT22;13927;51.534;11.866;2023-02-26T16:34:50;2.90;99.90
26182;DHT22;13927;51.534;11.866;2023-02-26T16:37:25;2.80;99.90
26182;DHT22;13927;51.534;11.866;2023-02-26T16:45:49;2.50;99.90
26182;DHT22;13927;51.534;11.866;2023-02-26T16:48:52;2.40;99.90
26182;DHT22;13927;51.534;11.866;2023-02-26T16:51:30;2.30;99.90
26182;DHT22;13927;51.534;11.866;2023-02-26T16:54:08;2.20;99.90
26182;DHT22;13927;51.534;11.866;2023-02-26T16:56:41;2.10;99.90
26182;DHT22;13927;51.534;11.866;2023-02-26T16:59:20;2.10;99.90
26182;DHT22;13927;51.534;11.866;2023-02-26T17:04:47;2.00;99.90
26182;DHT22;13927;51.534;11.866;2023-02-26T17:10:08;1.90;99.90
26182;DHT22;13927;51.534;11.866;2023-02-26T17:12:45;1.90;99.90
26182;DHT22;13927;51.534;11.866;2023-02-26T17:15:28;1.80;99.90
26182;DHT22;13927;51.534;11.866;2023-02-26T17:17:55;1.80;99.90
26182;DHT22;13927;51.534;11.866;2023-02-26T17:20:26;1.80;99.90
26182;DHT22;13927;51.534;11.866;2023-02-26T17:22:54;1.80;99.90
26182;DHT22;13927;51.534;11.866;2023-02-26T17:25:21;1.70;99.90
26182;DHT22;13927;51.534;11.866;2023-02-26T17:27:49;1.70;99.90
26182;DHT22;13927;51.534;11.866;2023-02-26T17:30:18;1.70;99.90
26182;DHT22;13927;51.534;11.866;2023-02-26T17:32:45;1.70;99.90
26182;DHT22;13927;51.534;11.866;2023-02-26T17:35:16;1.60;99.90
26182;DHT22;13927;51.534;11.866;2023-02-26T17:37:44;1.60;99.90
26182;DHT22;13927;51.534;11.866;2023-02-26T17:40:25;1.60;99.90
26182;DHT22;13927;51.534;11.866;2023-02-26T17:42:56;1.60;99.90
26182;DHT22;13927;51.534;11.866;2023-02-26T17:45:24;1.50;99.90
26182;DHT22;13927;51.534;11.866;2023-02-26T17:47:50;1.50;99.90
26182;DHT22;13927;51.534;11.866;2023-02-26T17:53:17;1.40;99.90
26182;DHT22;13927;51.534;11.866;2023-02-26T17:55:45;1.40;99.90
26182;DHT22;13927;51.534;11.866;2023-02-26T17:58:16;1.40;99.90
26182;DHT22;13927;51.534;11.866;2023-02-26T18:00:53;1.30;99.90
26182;DHT22;13927;51.534;11.866;2023-02-26T18:03:19;1.30;99.90
26182;DHT22;13927;51.534;11.866;2023-02-26T18:05:47;1.30;99.90
26182;DHT22;13927;51.534;11.866;2023-02-26T18:08:27;1.20;99.90
26182;DHT22;13927;51.534;11.866;2023-02-26T18:10:55;1.20;99.90
26182;DHT22;13927;51.534;11.866;2023-02-26T18:13:22;1.20;99.90
26182;DHT22;13927;51.534;11.866;2023-02-26T18:15:49;1.20;99.90
26182;DHT22;13927;51.534;11.866;2023-02-26T18:18:15;1.20;99.90
26182;DHT22;13927;51.534;11.866;2023-02-26T18:20:41;1.20;99.90
26182;DHT22;13927;51.534;11.866;2023-02-26T18:23:08;1.20;99.90
26182;DHT22;13927;51.534;11.866;2023-02-26T18:25:38;1.10;99.90
26182;DHT22;13927;51.534;11.866;2023-02-26T18:28:04;1.20;99.90
26182;DHT22;13927;51.534;11.866;2023-02-26T18:30:34;1.10;99.90
26182;DHT22;13927;51.534;11.866;2023-02-26T18:33:02;1.10;99.90
26182;DHT22;13927;51.534;11.866;2023-02-26T18:35:29;1.10;99.90
26182;DHT22;13927;51.534;11.866;2023-02-26T18:37:56;1.10;99.90